Airport Name : Podgorica

Other Name : Podgorica

ICAO : LYPG

IATA : TGD

FAA :

Latitude : 42.359392

Longitude : 19.251894

Country : Montenegro

Local Date and Time : 17 Oct 2021 07:29

 

TAF (Terminal Aerodrome Forecast)

TAF LYPG 170500Z 1706/1806 16005KT 9999 FEW040 SCT090 TX21/1713Z TN11/1805Z

 

METAR (METeorological Aerodrome Report)

LYPG 170500Z 06003KT 9999 FEW050 BKN080 13/06 Q1018 NOSIG

LYPG 170430Z 03004KT 360V120 9999 FEW050 BKN080 14/05 Q1017 NOSIG

LYPG 170400Z 34006KT 320V040 9999 FEW050 BKN080 14/05 Q1017 NOSIG

LYPG 170330Z 01005KT 9999 SCT050 BKN080 14/05 Q1017 NOSIG

LYPG 170300Z 36007KT 330V030 9999 SCT050 BKN080 14/05 Q1017 NOSIG

LYPG 170230Z 34010KT 200V010 9999 FEW050 BKN090 15/04 Q1017 NOSIG

LYPG 170200Z 32006KT 9999 FEW050 BKN090 13/06 Q1017 NOSIG

LYPG 170130Z 34005KT 9999 FEW050 BKN080 13/05 Q1017 NOSIG

To Charter a Jet Click here.